createdAt,value
2017-07-23T00:00:00.564Z,18.58
2017-07-23T00:01:22.733Z,18.65
2017-07-23T00:02:44.876Z,18.6
2017-07-23T00:04:07.284Z,18.65
2017-07-23T00:05:29.477Z,18.58
2017-07-23T00:06:51.757Z,18.62
2017-07-23T00:08:14.244Z,18.57
2017-07-23T00:09:36.656Z,18.52
2017-07-23T00:10:58.534Z,18.54
2017-07-23T00:12:20.153Z,18.52
2017-07-23T00:13:42.376Z,18.54
2017-07-23T00:15:04.236Z,18.65
2017-07-23T00:16:26.686Z,18.6
2017-07-23T00:17:48.525Z,18.65
2017-07-23T00:19:10.377Z,18.58
2017-07-23T00:20:32.224Z,18.6
2017-07-23T00:21:54.137Z,18.62
2017-07-23T00:23:16.296Z,18.57
2017-07-23T00:24:37.828Z,18.58
2017-07-23T00:25:59.966Z,18.62
2017-07-23T00:27:22.457Z,18.62
2017-07-23T00:28:44.590Z,18.62
2017-07-23T00:30:06.167Z,18.63
2017-07-23T00:31:28.243Z,18.58
2017-07-23T00:32:50.415Z,18.6
2017-07-23T00:34:12.566Z,18.62
2017-07-23T00:35:34.738Z,18.58
2017-07-23T00:36:57.787Z,18.57
2017-07-23T00:38:19.951Z,18.6
2017-07-23T00:39:41.913Z,18.57
2017-07-23T00:41:03.435Z,18.6
2017-07-23T00:42:25.207Z,18.52
2017-07-23T00:43:47.569Z,18.67
2017-07-23T00:45:10.065Z,18.6
2017-07-23T00:46:31.587Z,18.6
2017-07-23T00:47:54.027Z,18.58
2017-07-23T00:49:16.197Z,18.58
2017-07-23T00:50:38.387Z,18.65
2017-07-23T00:52:00.530Z,18.58
2017-07-23T00:53:22.756Z,18.57
2017-07-23T00:54:44.927Z,18.55
2017-07-23T00:56:07.088Z,18.6
2017-07-23T00:57:29.243Z,18.55
2017-07-23T00:58:51.464Z,18.58
2017-07-23T01:00:13.304Z,18.62
2017-07-23T01:01:35.136Z,18.6
2017-07-23T01:02:56.998Z,18.55
2017-07-23T01:04:19.403Z,18.6
2017-07-23T01:05:41.229Z,18.57
2017-07-23T01:07:03.415Z,18.65
2017-07-23T01:08:25.884Z,18.52
2017-07-23T01:09:47.646Z,18.65
2017-07-23T01:11:10.124Z,18.52
2017-07-23T01:12:32.595Z,18.54
2017-07-23T01:13:54.454Z,18.65
2017-07-23T01:15:16.890Z,18.62
2017-07-23T01:16:39.024Z,18.62
2017-07-23T01:18:00.237Z,18.65
2017-07-23T01:19:22.302Z,18.6
2017-07-23T01:20:44.727Z,18.57
2017-07-23T01:22:06.875Z,18.5
2017-07-23T01:23:28.385Z,18.6
2017-07-23T01:24:50.222Z,18.57
2017-07-23T01:26:12.026Z,18.52
2017-07-23T01:27:33.962Z,18.51
2017-07-23T01:28:56.207Z,18.55
2017-07-23T01:30:18.700Z,18.47
2017-07-23T01:31:40.807Z,18.52
2017-07-23T01:33:02.664Z,18.55
2017-07-23T01:34:24.174Z,18.5
2017-07-23T01:35:46.768Z,18.57
2017-07-23T01:37:08.899Z,18.65
2017-07-23T01:38:31.185Z,18.55
2017-07-23T01:39:53.068Z,18.6
2017-07-23T01:41:15.236Z,18.55
2017-07-23T01:42:37.377Z,18.58
2017-07-23T01:43:59.038Z,18.62
2017-07-23T01:45:21.176Z,18.66
2017-07-23T01:46:43.346Z,18.63
2017-07-23T01:48:05.223Z,18.69
2017-07-23T01:49:27.389Z,18.7
2017-07-23T01:50:49.598Z,18.75
2017-07-23T01:52:11.424Z,18.69
2017-07-23T01:53:33.951Z,18.72
2017-07-23T01:54:55.847Z,18.7
2017-07-23T01:56:17.409Z,18.73
2017-07-23T01:57:39.883Z,18.85
2017-07-23T01:59:02.550Z,18.82
2017-07-23T02:00:24.457Z,18.76
2017-07-23T02:01:46.593Z,18.82
2017-07-23T02:03:08.487Z,18.84
2017-07-23T02:04:30.997Z,18.75
2017-07-23T02:05:52.904Z,18.8
2017-07-23T02:07:14.775Z,18.76
2017-07-23T02:08:36.337Z,18.81
2017-07-23T02:09:59.124Z,18.76
2017-07-23T02:11:21.606Z,18.73
2017-07-23T02:12:43.765Z,18.85
2017-07-23T02:14:06.246Z,18.85
2017-07-23T02:15:29.116Z,18.84
2017-07-23T02:16:50.956Z,18.87
2017-07-23T02:18:13.155Z,18.81
2017-07-23T02:19:35.623Z,18.81
2017-07-23T02:20:58.513Z,18.88
2017-07-23T02:22:20.349Z,18.91
2017-07-23T02:23:42.513Z,18.87
2017-07-23T02:25:04.058Z,18.92
2017-07-23T02:26:25.565Z,18.99
2017-07-23T02:27:47.725Z,19.04
2017-07-23T02:29:09.028Z,19.06
2017-07-23T02:30:30.858Z,19.07
2017-07-23T02:31:53.276Z,19.16
2017-07-23T02:33:15.755Z,19.04
2017-07-23T02:34:37.947Z,19.21
2017-07-23T02:35:59.157Z,19.19
2017-07-23T02:37:21.556Z,19.18
2017-07-23T02:38:44.027Z,19.22
2017-07-23T02:40:05.863Z,19.16
2017-07-23T02:41:27.725Z,19.23
2017-07-23T02:42:50.168Z,19.18
2017-07-23T02:44:11.996Z,19.23
2017-07-23T02:45:34.172Z,19.28
2017-07-23T02:46:56.315Z,19.23
2017-07-23T02:48:18.850Z,19.25
2017-07-23T02:49:40.241Z,19.32
2017-07-23T02:51:02.389Z,19.26
2017-07-23T02:52:23.938Z,19.33
2017-07-23T02:53:46.046Z,19.39
2017-07-23T02:55:08.196Z,19.36
2017-07-23T02:56:30.358Z,19.29
2017-07-23T02:57:52.586Z,19.31
2017-07-23T02:59:15.153Z,19.32
2017-07-23T03:00:37.196Z,19.32
2017-07-23T03:01:59.337Z,19.37
2017-07-23T03:03:21.506Z,19.37
2017-07-23T03:04:43.914Z,19.32
2017-07-23T03:06:05.750Z,19.37
2017-07-23T03:07:27.577Z,19.32
2017-07-23T03:08:50.105Z,19.4
2017-07-23T03:10:12.866Z,19.33
2017-07-23T03:11:34.386Z,19.37
2017-07-23T03:12:55.905Z,19.25
2017-07-23T03:14:17.435Z,19.36
2017-07-23T03:15:39.888Z,19.32
2017-07-23T03:17:01.403Z,19.32
2017-07-23T03:18:23.230Z,19.32
2017-07-23T03:19:45.065Z,19.32
2017-07-23T03:21:06.826Z,19.25
2017-07-23T03:22:28.653Z,19.22
2017-07-23T03:23:50.803Z,19.22
2017-07-23T03:25:12.647Z,19.32
2017-07-23T03:26:35.114Z,19.31
2017-07-23T03:27:56.635Z,19.28
2017-07-23T03:29:18.615Z,19.29
2017-07-23T03:30:40.784Z,19.31
2017-07-23T03:32:03.583Z,19.21
2017-07-23T03:33:25.518Z,19.23
2017-07-23T03:34:46.715Z,19.16
2017-07-23T03:36:08.004Z,19.07
2017-07-23T03:37:30.450Z,19.14
2017-07-23T03:38:52.925Z,19.02
2017-07-23T03:40:14.752Z,19.04
2017-07-23T03:41:37.003Z,18.98
2017-07-23T03:42:58.845Z,18.98
2017-07-23T03:44:21.001Z,18.9
2017-07-23T03:45:42.542Z,18.85
2017-07-23T03:47:04.786Z,18.91
2017-07-23T03:48:26.962Z,18.85
2017-07-23T03:49:49.466Z,18.9
2017-07-23T03:51:11.372Z,18.9
2017-07-23T03:52:33.208Z,18.94
2017-07-23T03:53:55.506Z,18.88
2017-07-23T03:55:17.742Z,18.92
2017-07-23T03:56:40.212Z,18.85
2017-07-23T03:58:02.216Z,18.88
2017-07-23T03:59:24.445Z,18.87
2017-07-23T04:00:45.976Z,18.87
2017-07-23T04:02:07.484Z,18.85
2017-07-23T04:03:29.341Z,18.73
2017-07-23T04:04:51.795Z,18.87
2017-07-23T04:06:14.335Z,18.7
2017-07-23T04:07:36.490Z,18.7
2017-07-23T04:08:58.354Z,18.66
2017-07-23T04:10:20.546Z,18.66
2017-07-23T04:11:42.696Z,18.73
2017-07-23T04:13:04.291Z,18.67
2017-07-23T04:14:26.836Z,18.65
2017-07-23T04:15:49.252Z,18.65
2017-07-23T04:17:10.765Z,18.63
2017-07-23T04:18:31.972Z,18.66
2017-07-23T04:19:53.176Z,18.73
2017-07-23T04:21:15.762Z,18.69
2017-07-23T04:22:37.297Z,18.67
2017-07-23T04:23:59.445Z,18.82
2017-07-23T04:25:21.607Z,18.76
2017-07-23T04:26:44.427Z,18.85
2017-07-23T04:28:06.276Z,18.75
2017-07-23T04:29:28.426Z,18.85
2017-07-23T04:30:50.628Z,18.76
2017-07-23T04:32:12.134Z,18.81
2017-07-23T04:33:34.312Z,18.76
2017-07-23T04:34:56.154Z,18.72
2017-07-23T04:36:18.101Z,18.73
2017-07-23T04:37:40.674Z,18.69
2017-07-23T04:39:01.871Z,18.72
2017-07-23T04:40:23.727Z,18.7
2017-07-23T04:41:45.578Z,18.7
2017-07-23T04:43:07.404Z,18.66
2017-07-23T04:44:29.037Z,18.6
2017-07-23T04:45:51.505Z,18.6
2017-07-23T04:47:12.707Z,18.62
2017-07-23T04:48:34.793Z,18.55
2017-07-23T04:49:57.246Z,18.63
2017-07-23T04:51:18.846Z,18.52
2017-07-23T04:52:40.680Z,18.54
2017-07-23T04:54:02.439Z,18.55
2017-07-23T04:55:24.327Z,18.72
2017-07-23T04:56:45.846Z,18.69
2017-07-23T04:58:06.736Z,18.84
2017-07-23T04:59:28.695Z,18.85
2017-07-23T05:00:50.868Z,18.9
2017-07-23T05:02:13.047Z,18.99
2017-07-23T05:03:34.925Z,19.07
2017-07-23T05:04:57.322Z,19.14
2017-07-23T05:06:19.155Z,19.04
2017-07-23T05:07:41.368Z,19.08
2017-07-23T05:09:03.306Z,19.11
2017-07-23T05:10:25.801Z,19.19
2017-07-23T05:11:48.251Z,19.18
2017-07-23T05:13:10.094Z,19.23
2017-07-23T05:14:31.307Z,19.21
2017-07-23T05:15:53.496Z,19.11
2017-07-23T05:17:15.345Z,19.13
2017-07-23T05:18:37.186Z,19.08
2017-07-23T05:19:59.350Z,19.16
2017-07-23T05:21:20.898Z,19.18
2017-07-23T05:22:43.053Z,19.31
2017-07-23T05:24:05.522Z,19.33
2017-07-23T05:25:27.663Z,19.31
2017-07-23T05:26:49.480Z,19.31
2017-07-23T05:28:11.432Z,19.4
2017-07-23T05:29:33.665Z,19.47
2017-07-23T05:30:56.014Z,19.47
2017-07-23T05:32:17.765Z,19.48
2017-07-23T05:33:39.977Z,19.4
2017-07-23T05:35:02.123Z,19.36
2017-07-23T05:36:24.386Z,19.37
2017-07-23T05:37:45.928Z,19.33
2017-07-23T05:39:07.745Z,19.36
2017-07-23T05:40:29.924Z,19.43
2017-07-23T05:41:51.449Z,19.47
2017-07-23T05:43:13.826Z,19.43
2017-07-23T05:44:36.283Z,19.43
2017-07-23T05:45:58.205Z,19.47
2017-07-23T05:47:20.087Z,19.43
2017-07-23T05:48:42.942Z,19.43
2017-07-23T05:50:05.107Z,19.44
2017-07-23T05:51:27.065Z,19.31
2017-07-23T05:52:48.664Z,19.33
2017-07-23T05:54:11.225Z,19.19
2017-07-23T05:55:32.746Z,19.14
2017-07-23T05:56:54.577Z,19.23
2017-07-23T05:58:16.461Z,19.06
2017-07-23T05:59:38.886Z,19.1
2017-07-23T06:01:01.062Z,19.07
2017-07-23T06:02:23.236Z,19.1
2017-07-23T06:03:45.068Z,19.07
2017-07-23T06:05:07.155Z,19.08
2017-07-23T06:06:29.035Z,18.98
2017-07-23T06:07:51.525Z,18.98
2017-07-23T06:09:13.068Z,18.91
2017-07-23T06:10:34.846Z,18.91
2017-07-23T06:11:57.046Z,18.91
2017-07-23T06:13:18.873Z,18.87
2017-07-23T06:14:40.386Z,18.82
2017-07-23T06:16:02.514Z,18.78
2017-07-23T06:17:24.145Z,18.76
2017-07-23T06:18:46.026Z,18.7
2017-07-23T06:20:07.604Z,18.6
2017-07-23T06:21:29.708Z,18.69
2017-07-23T06:22:51.538Z,18.72
2017-07-23T06:24:13.786Z,18.85
2017-07-23T06:25:35.618Z,18.84
2017-07-23T06:26:58.136Z,18.75
2017-07-23T06:28:20.595Z,18.75
2017-07-23T06:29:42.105Z,18.8
2017-07-23T06:31:03.965Z,18.73
2017-07-23T06:32:26.743Z,18.84
2017-07-23T06:33:49.203Z,18.87
2017-07-23T06:35:10.734Z,18.9
2017-07-23T06:36:32.267Z,18.94
2017-07-23T06:37:54.458Z,19.02
2017-07-23T06:39:16.296Z,19.06
2017-07-23T06:40:38.434Z,19.1
2017-07-23T06:42:00.284Z,19.16
2017-07-23T06:43:22.874Z,19.29
2017-07-23T06:44:44.728Z,19.16
2017-07-23T06:46:07.197Z,19.04
2017-07-23T06:47:29.453Z,19.08
2017-07-23T06:48:51.865Z,19.07
2017-07-23T06:50:14.086Z,19.07
2017-07-23T06:51:35.924Z,18.98
2017-07-23T06:52:58.091Z,18.98
2017-07-23T06:54:20.566Z,18.92
2017-07-23T06:55:42.749Z,18.87
2017-07-23T06:57:05.232Z,18.82
2017-07-23T06:58:27.186Z,18.82
2017-07-23T06:59:49.516Z,18.85
2017-07-23T07:01:11.665Z,18.87
2017-07-23T07:02:33.816Z,18.72
2017-07-23T07:03:55.384Z,18.69
2017-07-23T07:05:17.153Z,18.63
2017-07-23T07:06:39.645Z,18.58
2017-07-23T07:08:02.126Z,18.52
2017-07-23T07:09:23.987Z,18.5
2017-07-23T07:10:46.171Z,18.62
2017-07-23T07:12:08.006Z,18.63
2017-07-23T07:13:30.167Z,18.69
2017-07-23T07:14:52.065Z,18.84
2017-07-23T07:16:14.647Z,18.75
2017-07-23T07:17:36.165Z,18.82
2017-07-23T07:18:58.410Z,18.76
2017-07-23T07:20:20.577Z,18.84
2017-07-23T07:21:42.816Z,18.91
2017-07-23T07:23:04.637Z,19.13
2017-07-23T07:24:26.475Z,19.33
2017-07-23T07:25:48.325Z,19.58
2017-07-23T07:27:10.798Z,19.77
2017-07-23T07:28:32.965Z,20.08
2017-07-23T07:29:54.835Z,20.32
2017-07-23T07:31:16.667Z,20.5
2017-07-23T07:32:39.066Z,20.64
2017-07-23T07:34:00.915Z,20.72
2017-07-23T07:35:22.758Z,20.76
2017-07-23T07:36:44.976Z,20.94
2017-07-23T07:38:07.427Z,21.07
2017-07-23T07:39:30.004Z,21.21
2017-07-23T07:40:52.167Z,21.61
2017-07-23T07:42:14.321Z,21.69
2017-07-23T07:43:37.035Z,21.91
2017-07-23T07:44:58.879Z,22.21
2017-07-23T07:46:20.738Z,22.58
2017-07-23T07:47:42.895Z,23.65
2017-07-23T07:49:05.662Z,25.4
2017-07-23T07:50:27.842Z,27.65
2017-07-23T07:51:50.466Z,29.24
2017-07-23T07:53:12.303Z,29.36
2017-07-23T07:54:34.409Z,29.63
2017-07-23T07:55:55.991Z,29.42
2017-07-23T07:57:17.850Z,28.7
2017-07-23T07:58:39.996Z,28.33
2017-07-23T08:00:02.828Z,27.92
2017-07-23T08:01:25.310Z,28.07
2017-07-23T08:02:47.797Z,28.54
2017-07-23T08:04:10.007Z,27.87
2017-07-23T08:05:32.764Z,26.97
2017-07-23T08:06:54.923Z,26.4
2017-07-23T08:08:17.464Z,26.21
2017-07-23T08:09:39.613Z,26.01
2017-07-23T08:11:02.091Z,26.88
2017-07-23T08:12:23.957Z,26.99
2017-07-23T08:13:45.813Z,26.75
2017-07-23T08:15:08.045Z,26.4
2017-07-23T08:16:30.830Z,25.99
2017-07-23T08:17:52.686Z,25.46
2017-07-23T08:19:14.546Z,25.15
2017-07-23T08:20:36.714Z,25.15
2017-07-23T08:21:59.183Z,25.05
2017-07-23T08:23:21.154Z,24.83
2017-07-23T08:24:43.340Z,24.96
2017-07-23T08:26:05.516Z,25.13
2017-07-23T08:27:28.176Z,25.2
2017-07-23T08:28:50.363Z,24.96
2017-07-23T08:30:12.526Z,24.78
2017-07-23T08:31:35.197Z,24.73
2017-07-23T08:32:57.725Z,25.14
2017-07-23T08:34:19.906Z,25.85
2017-07-23T08:35:42.398Z,26.4
2017-07-23T08:37:04.927Z,26.75
2017-07-23T08:38:27.711Z,26.67
2017-07-23T08:39:49.877Z,26.48
2017-07-23T08:41:11.529Z,25.99
2017-07-23T08:42:33.709Z,25.69
2017-07-23T08:43:55.963Z,25.09
2017-07-23T08:45:18.565Z,24.39
2017-07-23T08:46:40.712Z,24.12
2017-07-23T08:48:03.007Z,24.21
2017-07-23T08:49:25.412Z,24.47
2017-07-23T08:50:47.965Z,24.81
2017-07-23T08:52:10.155Z,25.21
2017-07-23T08:53:32.347Z,25.39
2017-07-23T08:54:55.131Z,25.87
2017-07-23T08:56:17.599Z,26.21
2017-07-23T08:57:39.866Z,26.13
2017-07-23T08:59:02.096Z,25.76
2017-07-23T09:00:24.585Z,25.47
2017-07-23T09:01:46.644Z,25.57
2017-07-23T09:03:08.826Z,25.61
2017-07-23T09:04:31.364Z,25.76
2017-07-23T09:05:53.318Z,25.85
2017-07-23T09:07:14.867Z,25.67
2017-07-23T09:08:37.505Z,25.35
2017-07-23T09:09:59.675Z,25.17
2017-07-23T09:11:22.567Z,24.85
2017-07-23T09:12:44.716Z,24.68
2017-07-23T09:14:07.275Z,24.39
2017-07-23T09:15:29.457Z,24.37
2017-07-23T09:16:51.980Z,24.53
2017-07-23T09:18:14.186Z,24.46
2017-07-23T09:19:36.390Z,24.21
2017-07-23T09:20:58.602Z,23.98
2017-07-23T09:22:21.416Z,23.97
2017-07-23T09:23:43.314Z,24.09
2017-07-23T09:25:05.184Z,24.21
2017-07-23T09:26:27.323Z,24.58
2017-07-23T09:27:49.267Z,24.93
2017-07-23T09:29:11.462Z,25.08
2017-07-23T09:30:34.035Z,25.3
2017-07-23T09:31:55.978Z,25.27
2017-07-23T09:33:18.563Z,25
2017-07-23T09:34:40.734Z,24.58
2017-07-23T09:36:01.639Z,24.16
2017-07-23T09:37:23.816Z,23.94
2017-07-23T09:38:46.652Z,24.06
2017-07-23T09:40:08.567Z,24.35
2017-07-23T09:41:31.152Z,24.31
2017-07-23T09:42:53.647Z,24.31
2017-07-23T09:44:16.106Z,24.61
2017-07-23T09:45:38.331Z,24.68
2017-07-23T09:47:00.548Z,24.77
2017-07-23T09:48:23.043Z,24.88
2017-07-23T09:49:45.734Z,24.98
2017-07-23T09:51:07.896Z,24.87
2017-07-23T09:52:30.084Z,25.02
2017-07-23T09:53:52.242Z,24.87
2017-07-23T09:55:14.810Z,24.78
2017-07-23T09:56:36.646Z,24.64
2017-07-23T09:57:58.792Z,24.62
2017-07-23T09:59:21.476Z,24.5
2017-07-23T10:00:44.278Z,24.57
2017-07-23T10:02:06.759Z,24.46
2017-07-23T10:03:28.947Z,24.47
2017-07-23T10:04:51.131Z,24.64
2017-07-23T10:06:13.650Z,24.87
2017-07-23T10:07:36.147Z,24.96
2017-07-23T10:08:58.755Z,25
2017-07-23T10:10:20.988Z,24.68
2017-07-23T10:11:43.813Z,24.4
2017-07-23T10:13:05.977Z,23.98
2017-07-23T10:14:28.590Z,23.69
2017-07-23T10:15:50.462Z,23.55
2017-07-23T10:17:12.586Z,23.5
2017-07-23T10:18:35.141Z,23.57
2017-07-23T10:19:57.109Z,23.72
2017-07-23T10:21:19.317Z,23.75
2017-07-23T10:22:42.056Z,23.94
2017-07-23T10:24:04.253Z,23.94
2017-07-23T10:25:26.757Z,24.12
2017-07-23T10:26:48.605Z,24.31
2017-07-23T10:28:11.045Z,24.58
2017-07-23T10:29:32.368Z,24.8
2017-07-23T10:30:55.157Z,25.13
2017-07-23T10:32:17.037Z,25.28
2017-07-23T10:33:39.235Z,25.25
2017-07-23T10:35:00.755Z,25.43
2017-07-23T10:36:22.633Z,25.67
2017-07-23T10:37:44.818Z,25.94
2017-07-23T10:39:07.441Z,26.17
2017-07-23T10:40:29.968Z,26.01
2017-07-23T10:41:52.238Z,25.77
2017-07-23T10:43:14.448Z,25.57
2017-07-23T10:44:36.566Z,25.2
2017-07-23T10:45:59.046Z,24.77
2017-07-23T10:47:21.547Z,24.43
2017-07-23T10:48:43.849Z,24.22
2017-07-23T10:50:06.357Z,24.02
2017-07-23T10:51:28.868Z,24.03
2017-07-23T10:52:50.738Z,24.18
2017-07-23T10:54:12.904Z,24.22
2017-07-23T10:55:35.459Z,24.34
2017-07-23T10:56:57.688Z,24.6
2017-07-23T10:58:19.877Z,24.8
2017-07-23T10:59:41.437Z,25.14
2017-07-23T11:01:04.330Z,25.67
2017-07-23T11:02:27.020Z,25.95
2017-07-23T11:03:48.608Z,25.92
2017-07-23T11:05:11.260Z,25.92
2017-07-23T11:06:34.086Z,25.95
2017-07-23T11:07:56.287Z,26.02
2017-07-23T11:09:18.800Z,26.12
2017-07-23T11:10:41.258Z,26.29
2017-07-23T11:12:04.619Z,26.3
2017-07-23T11:13:27.180Z,26.29
2017-07-23T11:14:49.483Z,26.15
2017-07-23T11:16:12.104Z,25.97
2017-07-23T11:17:34.278Z,26.02
2017-07-23T11:18:56.859Z,26.01
2017-07-23T11:20:19.338Z,25.91
2017-07-23T11:21:41.527Z,25.91
2017-07-23T11:23:03.876Z,25.73
2017-07-23T11:24:26.167Z,25.58
2017-07-23T11:25:48.396Z,25.52
2017-07-23T11:27:10.267Z,25.4
2017-07-23T11:28:32.842Z,25.4
2017-07-23T11:29:55.034Z,25.38
2017-07-23T11:31:17.328Z,25.62
2017-07-23T11:32:39.921Z,25.72
2017-07-23T11:34:02.721Z,25.91
2017-07-23T11:35:24.930Z,26.1
2017-07-23T11:36:47.121Z,26.36
2017-07-23T11:38:09.605Z,26.73
2017-07-23T11:39:32.128Z,26.8
2017-07-23T11:40:54.105Z,26.8
2017-07-23T11:42:16.628Z,26.62
2017-07-23T11:43:39.134Z,26.29
2017-07-23T11:45:01.069Z,25.82
2017-07-23T11:46:23.590Z,25.57
2017-07-23T11:47:45.527Z,25.61
2017-07-23T11:49:07.188Z,25.65
2017-07-23T11:50:29.914Z,25.83
2017-07-23T11:51:52.138Z,25.9
2017-07-23T11:53:14.634Z,25.72
2017-07-23T11:54:37.236Z,25.52
2017-07-23T11:55:59.377Z,25.51
2017-07-23T11:57:21.631Z,25.61
2017-07-23T11:58:43.829Z,25.76
2017-07-23T12:00:05.996Z,25.85
2017-07-23T12:01:28.554Z,25.85
2017-07-23T12:02:49.769Z,26.05
2017-07-23T12:04:12.256Z,25.94
2017-07-23T12:05:34.187Z,25.95
2017-07-23T12:06:56.959Z,25.73
2017-07-23T12:08:19.157Z,25.65
2017-07-23T12:09:41.294Z,25.43
2017-07-23T12:11:03.251Z,24.83
2017-07-23T12:12:25.354Z,24.53
2017-07-23T12:13:47.271Z,24.49
2017-07-23T12:15:09.547Z,24.61
2017-07-23T12:16:31.134Z,24.85
2017-07-23T12:17:53.333Z,24.68
2017-07-23T12:19:15.218Z,24.34
2017-07-23T12:20:37.406Z,24.06
2017-07-23T12:21:59.899Z,23.7
2017-07-23T12:23:21.709Z,23.33
2017-07-23T12:24:44.010Z,23.2
2017-07-23T12:26:06.608Z,23.05
2017-07-23T12:27:28.786Z,23.09
2017-07-23T12:28:51.309Z,22.98
2017-07-23T12:30:13.191Z,22.97
2017-07-23T12:31:35.380Z,23.22
2017-07-23T12:32:57.615Z,23.31
2017-07-23T12:34:20.103Z,23.39
2017-07-23T12:35:42.307Z,23.47
2017-07-23T12:37:05.241Z,23.39
2017-07-23T12:38:27.548Z,23.27
2017-07-23T12:39:50.133Z,23.31
2017-07-23T12:41:11.997Z,23.39
2017-07-23T12:42:34.282Z,23.42
2017-07-23T12:43:56.598Z,23.4
2017-07-23T12:45:19.423Z,23.32
2017-07-23T12:46:41.994Z,23.38
2017-07-23T12:48:04.478Z,23.32
2017-07-23T12:49:27.081Z,23.4
2017-07-23T12:50:48.879Z,23.54
2017-07-23T12:52:10.425Z,23.65
2017-07-23T12:53:33.001Z,23.16
2017-07-23T12:54:55.183Z,23.15
2017-07-23T12:56:17.426Z,22.88
2017-07-23T12:57:39.480Z,23.32
2017-07-23T12:59:01.336Z,23.32
2017-07-23T13:00:23.208Z,23.38
2017-07-23T13:01:46.051Z,23.48
2017-07-23T13:03:08.217Z,23.47
2017-07-23T13:04:30.701Z,23.42
2017-07-23T13:05:53.183Z,23.47
2017-07-23T13:07:15.616Z,23.61
2017-07-23T13:08:37.469Z,23.68
2017-07-23T13:09:59.665Z,23.6
2017-07-23T13:11:22.148Z,23.55
2017-07-23T13:12:44.667Z,23.58
2017-07-23T13:14:06.558Z,23.84
2017-07-23T13:15:29.126Z,23.97
2017-07-23T13:16:50.973Z,24.12
2017-07-23T13:18:13.365Z,24.16
2017-07-23T13:19:35.525Z,24.13
2017-07-23T13:20:58.097Z,24.16
2017-07-23T13:22:20.126Z,24.34
2017-07-23T13:23:42.891Z,24.49
2017-07-23T13:25:05.217Z,24.64
2017-07-23T13:26:27.066Z,24.76
2017-07-23T13:27:49.227Z,24.85
2017-07-23T13:29:11.497Z,24.81
2017-07-23T13:30:33.752Z,24.65
2017-07-23T13:31:55.451Z,24.62
2017-07-23T13:33:17.618Z,24.27
2017-07-23T13:34:40.396Z,24.08
2017-07-23T13:36:02.577Z,23.93
2017-07-23T13:37:25.189Z,24.02
2017-07-23T13:38:47.381Z,24.35
2017-07-23T13:40:09.935Z,24.71
2017-07-23T13:41:31.784Z,25.15
2017-07-23T13:42:53.626Z,25.6
2017-07-23T13:44:15.896Z,25.94
2017-07-23T13:45:37.750Z,25.99
2017-07-23T13:47:00.223Z,26.02
2017-07-23T13:48:22.486Z,25.67
2017-07-23T13:49:44.346Z,25.61
2017-07-23T13:51:06.120Z,25.52
2017-07-23T13:52:28.007Z,25.51
2017-07-23T13:53:49.858Z,25.52
2017-07-23T13:55:12.056Z,25.61
2017-07-23T13:56:34.210Z,25.79
2017-07-23T13:57:55.869Z,25.91
2017-07-23T13:59:18.037Z,25.88
2017-07-23T14:00:39.956Z,25.77
2017-07-23T14:02:02.725Z,25.95
2017-07-23T14:03:25.037Z,25.72
2017-07-23T14:04:46.964Z,25.5
2017-07-23T14:06:08.815Z,25.43
2017-07-23T14:07:31.295Z,25.13
2017-07-23T14:08:52.866Z,25.21
2017-07-23T14:10:15.044Z,25.21
2017-07-23T14:11:37.211Z,25.36
2017-07-23T14:12:59.053Z,25.46
2017-07-23T14:14:20.618Z,25.47
2017-07-23T14:15:43.146Z,25.54
2017-07-23T14:17:05.012Z,25.45
2017-07-23T14:18:27.176Z,25.55
2017-07-23T14:19:49.046Z,25.4
2017-07-23T14:21:11.641Z,25.28
2017-07-23T14:22:33.481Z,25.18
2017-07-23T14:23:56.272Z,25.14
2017-07-23T14:25:18.444Z,25.28
2017-07-23T14:26:39.691Z,25.39
2017-07-23T14:28:01.864Z,25.4
2017-07-23T14:29:24.416Z,25.58
2017-07-23T14:30:46.285Z,25.52
2017-07-23T14:32:08.155Z,25.4
2017-07-23T14:33:30.657Z,25.36
2017-07-23T14:34:53.185Z,25.09
2017-07-23T14:36:15.659Z,25.3
2017-07-23T14:37:38.197Z,25.46
2017-07-23T14:39:00.366Z,25.5
2017-07-23T14:40:23.213Z,25.51
2017-07-23T14:41:45.183Z,25.79
2017-07-23T14:43:07.744Z,25.88
2017-07-23T14:44:29.625Z,25.79
2017-07-23T14:45:51.435Z,25.39
2017-07-23T14:47:12.979Z,25.13
2017-07-23T14:48:34.526Z,24.87
2017-07-23T14:49:57.077Z,24.8
2017-07-23T14:51:19.246Z,24.81
2017-07-23T14:52:41.524Z,24.73
2017-07-23T14:54:03.425Z,24.68
2017-07-23T14:55:24.967Z,24.65
2017-07-23T14:56:47.125Z,24.65
2017-07-23T14:58:08.653Z,24.65
2017-07-23T14:59:31.138Z,24.61
2017-07-23T15:00:53.334Z,24.43
2017-07-23T15:02:15.457Z,24.37
2017-07-23T15:03:37.672Z,24.43
2017-07-23T15:05:00.224Z,24.34
2017-07-23T15:06:22.705Z,24.27
2017-07-23T15:07:45.488Z,24.16
2017-07-23T15:09:07.034Z,24.03
2017-07-23T15:10:28.888Z,23.97
2017-07-23T15:11:51.085Z,23.97
2017-07-23T15:13:13.649Z,24.02
2017-07-23T15:14:35.891Z,23.94
2017-07-23T15:15:58.444Z,24.03
2017-07-23T15:17:20.368Z,23.91
2017-07-23T15:18:42.874Z,23.95
2017-07-23T15:20:05.123Z,24.05
2017-07-23T15:21:26.452Z,24.03
2017-07-23T15:22:47.983Z,23.98
2017-07-23T15:24:10.226Z,24.05
2017-07-23T15:25:32.525Z,24.12
2017-07-23T15:26:54.378Z,23.94
2017-07-23T15:28:16.856Z,23.76
2017-07-23T15:29:39.045Z,23.65
2017-07-23T15:31:00.937Z,23.65
2017-07-23T15:32:23.457Z,23.7
2017-07-23T15:33:45.981Z,23.72
2017-07-23T15:35:07.605Z,23.9
2017-07-23T15:36:29.454Z,24.08
2017-07-23T15:37:51.631Z,24.25
2017-07-23T15:39:13.481Z,24.4
2017-07-23T15:40:35.955Z,24.5
2017-07-23T15:41:58.464Z,24.69
2017-07-23T15:43:20.724Z,24.65
2017-07-23T15:44:43.236Z,24.68
2017-07-23T15:46:05.535Z,24.57
2017-07-23T15:47:27.388Z,24.65
2017-07-23T15:48:49.901Z,24.65
2017-07-23T15:50:12.226Z,24.62
2017-07-23T15:51:34.309Z,24.42
2017-07-23T15:52:55.878Z,24.22
2017-07-23T15:54:18.528Z,24.15
2017-07-23T15:55:41.142Z,24.05
2017-07-23T15:57:03.022Z,23.83
2017-07-23T15:58:24.597Z,23.55
2017-07-23T15:59:46.785Z,23.46
2017-07-23T16:01:09.364Z,23.35
2017-07-23T16:02:31.797Z,23.42
2017-07-23T16:03:53.974Z,23.47
2017-07-23T16:05:15.867Z,23.48
2017-07-23T16:06:38.089Z,23.6
2017-07-23T16:08:00.218Z,23.63
2017-07-23T16:09:22.413Z,23.68
2017-07-23T16:10:43.945Z,23.65
2017-07-23T16:12:05.780Z,23.76
2017-07-23T16:13:28.241Z,23.8
2017-07-23T16:14:49.773Z,23.88
2017-07-23T16:16:11.964Z,23.9
2017-07-23T16:17:33.885Z,23.85
2017-07-23T16:18:55.813Z,23.93
2017-07-23T16:20:17.665Z,23.83
2017-07-23T16:21:40.230Z,23.84
2017-07-23T16:23:02.474Z,23.78
2017-07-23T16:24:25.234Z,23.78
2017-07-23T16:25:47.428Z,23.61
2017-07-23T16:27:09.663Z,23.33
2017-07-23T16:28:31.884Z,23.25
2017-07-23T16:29:54.527Z,23.07
2017-07-23T16:31:16.404Z,22.9
2017-07-23T16:32:38.616Z,22.83
2017-07-23T16:34:01.163Z,22.58
2017-07-23T16:35:23.393Z,22.46
2017-07-23T16:36:45.298Z,22.33
2017-07-23T16:38:07.621Z,22.24
2017-07-23T16:39:30.134Z,22.21
2017-07-23T16:40:51.989Z,22.24
2017-07-23T16:42:14.553Z,22.28
2017-07-23T16:43:36.426Z,22.4
2017-07-23T16:44:58.911Z,22.61
2017-07-23T16:46:21.353Z,22.7
2017-07-23T16:47:43.975Z,22.62
2017-07-23T16:49:06.466Z,22.7
2017-07-23T16:50:28.337Z,22.65
2017-07-23T16:51:51.122Z,22.62
2017-07-23T16:53:13.807Z,22.6
2017-07-23T16:54:36.304Z,22.52
2017-07-23T16:55:58.917Z,22.47
2017-07-23T16:57:21.382Z,22.57
2017-07-23T16:58:43.847Z,22.51
2017-07-23T17:00:06.089Z,22.51
2017-07-23T17:01:28.574Z,22.45
2017-07-23T17:02:51.014Z,22.33
2017-07-23T17:04:13.497Z,22.36
2017-07-23T17:05:35.998Z,22.35
2017-07-23T17:06:58.516Z,22.33
2017-07-23T17:08:20.936Z,22.24
2017-07-23T17:09:43.455Z,21.92
2017-07-23T17:11:05.962Z,21.64
2017-07-23T17:12:27.814Z,21.59
2017-07-23T17:13:50.698Z,21.32
2017-07-23T17:15:12.557Z,21.14
2017-07-23T17:16:34.730Z,21.04
2017-07-23T17:17:56.276Z,20.94
2017-07-23T17:19:19.024Z,20.89
2017-07-23T17:20:41.526Z,20.8
2017-07-23T17:22:04.007Z,20.76
2017-07-23T17:23:26.325Z,20.61
2017-07-23T17:24:49.095Z,20.66
2017-07-23T17:26:11.605Z,20.69
2017-07-23T17:27:34.181Z,20.77
2017-07-23T17:28:56.353Z,20.88
2017-07-23T17:30:18.653Z,20.88
2017-07-23T17:31:40.826Z,21.12
2017-07-23T17:33:03.344Z,21.27
2017-07-23T17:34:25.382Z,21.43
2017-07-23T17:35:48.215Z,21.61
2017-07-23T17:37:10.387Z,21.59
2017-07-23T17:38:32.590Z,21.74
2017-07-23T17:39:55.151Z,21.67
2017-07-23T17:41:17.758Z,21.8